createdAt,value
2023-05-07T00:00:47.099Z,11.30
2023-05-07T00:03:15.030Z,11.00
2023-05-07T00:05:42.555Z,11.49
2023-05-07T00:08:09.071Z,11.16
2023-05-07T00:10:35.541Z,10.67
2023-05-07T00:13:02.183Z,11.12
2023-05-07T00:15:28.699Z,10.64
2023-05-07T00:17:55.213Z,10.71
2023-05-07T00:20:21.660Z,11.08
2023-05-07T00:22:48.130Z,10.74
2023-05-07T00:25:14.554Z,10.85
2023-05-07T00:27:41.045Z,10.96
2023-05-07T00:30:09.117Z,10.63
2023-05-07T00:32:35.940Z,10.63
2023-05-07T00:35:02.419Z,10.87
2023-05-07T00:37:28.866Z,11.27
2023-05-07T00:39:57.045Z,10.94
2023-05-07T00:42:23.599Z,11.38
2023-05-07T00:44:50.062Z,11.48
2023-05-07T00:47:16.776Z,11.33
2023-05-07T00:49:44.564Z,11.65
2023-05-07T00:52:14.244Z,10.88
2023-05-07T00:54:42.283Z,10.90
2023-05-07T00:57:10.602Z,10.75
2023-05-07T00:59:37.136Z,11.26
2023-05-07T01:02:03.788Z,10.86
2023-05-07T01:04:31.424Z,10.77
2023-05-07T01:07:00.238Z,10.93
2023-05-07T01:09:27.709Z,11.16
2023-05-07T01:11:54.555Z,11.30
2023-05-07T01:14:21.889Z,10.74
2023-05-07T01:16:50.114Z,10.92
2023-05-07T01:19:19.249Z,10.84
2023-05-07T01:21:49.844Z,11.04
2023-05-07T01:24:16.926Z,10.79
2023-05-07T01:26:46.728Z,11.16
2023-05-07T01:29:13.884Z,10.76
2023-05-07T01:31:41.905Z,11.32
2023-05-07T01:34:09.925Z,10.77
2023-05-07T01:36:39.247Z,10.61
2023-05-07T01:39:07.964Z,10.98
2023-05-07T01:41:34.910Z,10.62
2023-05-07T01:44:01.554Z,10.31
2023-05-07T01:46:28.945Z,10.30
2023-05-07T01:48:55.516Z,10.86
2023-05-07T01:51:23.427Z,10.92
2023-05-07T01:53:52.171Z,10.26
2023-05-07T01:56:22.523Z,10.42
2023-05-07T01:58:49.188Z,10.21
2023-05-07T02:01:15.797Z,10.35
2023-05-07T02:03:42.571Z,10.62
2023-05-07T02:06:09.565Z,10.86
2023-05-07T02:08:36.445Z,10.84
2023-05-07T02:11:03.187Z,10.78
2023-05-07T02:13:31.063Z,10.88
2023-05-07T02:15:57.971Z,10.85
2023-05-07T02:18:24.504Z,11.49
2023-05-07T02:20:51.769Z,11.03
2023-05-07T02:23:18.358Z,11.14
2023-05-07T02:25:44.886Z,11.00
2023-05-07T02:28:11.368Z,10.83
2023-05-07T02:30:38.954Z,10.68
2023-05-07T02:33:05.704Z,10.45
2023-05-07T02:35:32.191Z,10.37
2023-05-07T02:37:58.610Z,10.46
2023-05-07T02:40:25.464Z,10.18
2023-05-07T02:42:51.933Z,10.94
2023-05-07T02:45:19.294Z,10.09
2023-05-07T02:47:45.811Z,10.64
2023-05-07T02:50:12.486Z,10.75
2023-05-07T02:52:39.160Z,10.76
2023-05-07T02:55:06.159Z,11.60
2023-05-07T02:57:32.623Z,10.97
2023-05-07T02:59:59.575Z,11.15
2023-05-07T03:02:25.999Z,10.62
2023-05-07T03:04:52.841Z,11.02
2023-05-07T03:07:19.394Z,10.49
2023-05-07T03:09:46.357Z,11.18
2023-05-07T03:12:12.792Z,10.90
2023-05-07T03:14:39.283Z,10.58
2023-05-07T03:17:06.039Z,10.41
2023-05-07T03:19:32.497Z,10.13
2023-05-07T03:21:58.995Z,10.45
2023-05-07T03:24:25.538Z,10.44
2023-05-07T03:26:52.000Z,10.63
2023-05-07T03:29:18.714Z,10.10
2023-05-07T03:31:45.253Z,10.23
2023-05-07T03:34:11.760Z,10.44
2023-05-07T03:36:38.187Z,10.71
2023-05-07T03:39:04.881Z,10.75
2023-05-07T03:41:31.360Z,10.86
2023-05-07T03:43:57.818Z,10.88
2023-05-07T03:46:27.147Z,10.41
2023-05-07T03:48:53.715Z,10.21
2023-05-07T03:51:20.183Z,10.47
2023-05-07T03:53:46.607Z,10.45
2023-05-07T03:56:13.094Z,10.67
2023-05-07T03:58:39.548Z,10.49
2023-05-07T04:01:06.011Z,10.71
2023-05-07T04:03:32.617Z,10.27
2023-05-07T04:05:59.157Z,10.36
2023-05-07T04:08:25.577Z,10.71
2023-05-07T04:10:58.786Z,10.63
2023-05-07T04:13:25.819Z,10.47
2023-05-07T04:15:56.096Z,10.56
2023-05-07T04:18:22.764Z,10.49
2023-05-07T04:20:50.948Z,10.77
2023-05-07T04:23:17.481Z,10.91
2023-05-07T04:25:44.014Z,10.54
2023-05-07T04:28:10.482Z,10.47
2023-05-07T04:30:36.943Z,10.44
2023-05-07T04:33:03.572Z,10.73
2023-05-07T04:35:30.045Z,10.66
2023-05-07T04:37:56.494Z,10.47
2023-05-07T04:40:23.180Z,10.57
2023-05-07T04:42:49.616Z,10.94
2023-05-07T04:45:16.363Z,10.92
2023-05-07T04:47:42.898Z,10.24
2023-05-07T04:50:09.989Z,10.23
2023-05-07T04:52:36.733Z,10.27
2023-05-07T04:55:03.513Z,9.98
2023-05-07T04:57:29.949Z,11.08
2023-05-07T04:59:56.416Z,10.34
2023-05-07T05:02:22.861Z,10.60
2023-05-07T05:04:49.395Z,10.52
2023-05-07T05:07:15.828Z,10.92
2023-05-07T05:09:42.354Z,10.72
2023-05-07T05:12:10.318Z,10.71
2023-05-07T05:14:37.051Z,10.95
2023-05-07T05:17:03.510Z,10.34
2023-05-07T05:19:29.966Z,11.11
2023-05-07T05:21:56.516Z,10.55
2023-05-07T05:24:22.999Z,10.42
2023-05-07T05:26:49.466Z,10.63
2023-05-07T05:29:15.933Z,11.01
2023-05-07T05:31:42.833Z,10.96
2023-05-07T05:34:09.354Z,11.11
2023-05-07T05:36:35.838Z,10.22
2023-05-07T05:39:02.381Z,10.95
2023-05-07T05:41:28.861Z,10.84
2023-05-07T05:43:55.316Z,10.68
2023-05-07T05:46:21.871Z,11.16
2023-05-07T05:48:48.311Z,10.68
2023-05-07T05:51:14.816Z,11.36
2023-05-07T05:53:41.276Z,10.98
2023-05-07T05:56:07.976Z,10.78
2023-05-07T05:58:34.407Z,10.91
2023-05-07T06:01:01.076Z,11.28
2023-05-07T06:03:27.543Z,10.53
2023-05-07T06:05:54.021Z,10.93
2023-05-07T06:08:20.822Z,10.67
2023-05-07T06:10:47.369Z,10.70
2023-05-07T06:13:13.928Z,10.60
2023-05-07T06:15:40.475Z,11.01
2023-05-07T06:18:07.039Z,10.90
2023-05-07T06:20:33.605Z,10.42
2023-05-07T06:23:00.037Z,10.76
2023-05-07T06:25:26.494Z,10.41
2023-05-07T06:27:52.914Z,10.93
2023-05-07T06:30:19.516Z,10.52
2023-05-07T06:32:45.990Z,10.84
2023-05-07T06:35:12.468Z,10.49
2023-05-07T06:37:40.573Z,11.05
2023-05-07T06:40:08.366Z,10.71
2023-05-07T06:42:35.152Z,10.60
2023-05-07T06:45:02.039Z,11.01
2023-05-07T06:47:28.515Z,11.23
2023-05-07T06:49:55.049Z,11.08
2023-05-07T06:52:21.524Z,11.27
2023-05-07T06:54:48.040Z,11.04
2023-05-07T06:57:14.507Z,10.93
2023-05-07T06:59:41.122Z,11.12
2023-05-07T07:02:07.634Z,11.41
2023-05-07T07:04:34.130Z,11.14
2023-05-07T07:07:00.624Z,11.14
2023-05-07T07:09:27.090Z,11.51
2023-05-07T07:11:53.568Z,10.74
2023-05-07T07:14:20.090Z,11.26
2023-05-07T07:16:47.860Z,11.88
2023-05-07T07:19:16.187Z,11.44
2023-05-07T07:21:43.188Z,11.77
2023-05-07T07:24:09.651Z,12.55
2023-05-07T07:26:36.244Z,12.03
2023-05-07T07:29:02.728Z,11.76
2023-05-07T07:31:29.313Z,11.49
2023-05-07T07:33:55.897Z,11.32
2023-05-07T07:36:23.810Z,11.74
2023-05-07T07:38:54.839Z,12.15
2023-05-07T07:41:21.369Z,11.43
2023-05-07T07:43:49.159Z,12.02
2023-05-07T07:46:16.678Z,11.97
2023-05-07T07:48:43.143Z,12.00
2023-05-07T07:51:09.633Z,12.39
2023-05-07T07:53:36.087Z,11.83
2023-05-07T07:56:04.976Z,11.39
2023-05-07T07:58:32.664Z,11.54
2023-05-07T08:00:59.243Z,12.05
2023-05-07T08:03:25.826Z,11.94
2023-05-07T08:05:52.332Z,11.92
2023-05-07T08:08:18.791Z,12.26
2023-05-07T08:10:45.617Z,12.19
2023-05-07T08:13:12.145Z,12.42
2023-05-07T08:15:38.660Z,12.51
2023-05-07T08:18:05.340Z,11.97
2023-05-07T08:20:32.050Z,12.20
2023-05-07T08:22:58.589Z,12.07
2023-05-07T08:25:25.187Z,13.22
2023-05-07T08:27:51.665Z,12.63
2023-05-07T08:30:18.146Z,12.60
2023-05-07T08:32:44.675Z,13.52
2023-05-07T08:35:11.360Z,13.97
2023-05-07T08:37:37.919Z,14.44
2023-05-07T08:40:06.573Z,13.37
2023-05-07T08:42:38.518Z,12.23
2023-05-07T08:45:09.340Z,12.67
2023-05-07T08:47:48.785Z,12.82
2023-05-07T08:50:15.581Z,13.34
2023-05-07T08:52:42.189Z,13.50
2023-05-07T08:55:10.289Z,12.50
2023-05-07T08:57:37.104Z,12.60
2023-05-07T09:00:08.275Z,12.95
2023-05-07T09:02:49.117Z,13.02
2023-05-07T09:05:15.658Z,13.69
2023-05-07T09:07:42.165Z,12.66
2023-05-07T09:10:09.192Z,12.89
2023-05-07T09:12:37.242Z,13.66
2023-05-07T09:15:04.151Z,13.59
2023-05-07T09:17:30.708Z,14.11
2023-05-07T09:19:57.779Z,13.90
2023-05-07T09:22:24.336Z,13.11
2023-05-07T09:24:51.768Z,13.34
2023-05-07T09:27:19.003Z,13.29
2023-05-07T09:29:45.892Z,14.69
2023-05-07T09:32:12.407Z,13.58
2023-05-07T09:34:38.933Z,15.02
2023-05-07T09:37:06.797Z,14.34
2023-05-07T09:39:40.922Z,13.72
2023-05-07T09:42:07.656Z,14.29
2023-05-07T09:44:35.442Z,15.03
2023-05-07T09:47:03.005Z,14.88
2023-05-07T09:49:33.382Z,14.25
2023-05-07T09:52:01.585Z,14.71
2023-05-07T09:54:31.712Z,14.53
2023-05-07T09:56:59.410Z,13.90
2023-05-07T09:59:29.871Z,15.19
2023-05-07T10:01:59.283Z,15.62
2023-05-07T10:04:28.890Z,15.13
2023-05-07T10:06:56.620Z,15.30
2023-05-07T10:09:23.885Z,15.24
2023-05-07T10:11:51.078Z,15.11
2023-05-07T10:14:18.394Z,14.95
2023-05-07T10:16:45.804Z,14.91
2023-05-07T10:19:12.887Z,15.12
2023-05-07T10:21:43.007Z,15.92
2023-05-07T10:24:26.835Z,14.77
2023-05-07T10:26:58.107Z,15.14
2023-05-07T10:29:35.864Z,15.72
2023-05-07T10:32:12.748Z,15.76
2023-05-07T10:34:43.276Z,15.97
2023-05-07T10:37:10.987Z,16.02
2023-05-07T10:39:37.947Z,15.20
2023-05-07T10:42:11.898Z,15.63
2023-05-07T10:44:38.739Z,15.70
2023-05-07T10:47:17.466Z,16.40
2023-05-07T10:49:43.847Z,15.85
2023-05-07T10:52:18.549Z,16.36
2023-05-07T10:54:46.226Z,16.69
2023-05-07T10:57:37.512Z,17.21
2023-05-07T11:00:04.924Z,16.18
2023-05-07T11:03:06.810Z,15.98
2023-05-07T11:05:37.297Z,17.23
2023-05-07T11:08:05.836Z,16.50
2023-05-07T11:10:53.063Z,16.33
2023-05-07T11:13:40.835Z,15.81
2023-05-07T11:16:18.238Z,15.61
2023-05-07T11:18:50.924Z,15.51
2023-05-07T11:21:42.633Z,15.71
2023-05-07T11:24:10.284Z,15.97
2023-05-07T11:26:44.581Z,15.76
2023-05-07T11:29:20.832Z,16.12
2023-05-07T11:31:53.157Z,16.16
2023-05-07T11:34:24.651Z,16.86
2023-05-07T11:36:51.517Z,17.25
2023-05-07T11:39:34.449Z,16.71
2023-05-07T11:42:01.470Z,16.79
2023-05-07T11:44:42.455Z,17.74
2023-05-07T11:47:09.161Z,18.19
2023-05-07T11:49:35.674Z,17.03
2023-05-07T11:52:02.137Z,17.10
2023-05-07T11:54:36.356Z,16.74
2023-05-07T11:57:03.073Z,17.00
2023-05-07T11:59:29.547Z,16.58
2023-05-07T12:02:00.322Z,16.68
2023-05-07T12:04:27.055Z,16.33
2023-05-07T12:06:56.846Z,16.79
2023-05-07T12:09:23.383Z,16.84
2023-05-07T12:11:49.944Z,16.91
2023-05-07T12:14:19.265Z,16.70
2023-05-07T12:16:46.415Z,17.04
2023-05-07T12:19:16.167Z,17.47
2023-05-07T12:21:42.795Z,17.78
2023-05-07T12:24:09.296Z,17.23
2023-05-07T12:26:39.247Z,18.07
2023-05-07T12:29:05.868Z,17.59
2023-05-07T12:31:32.432Z,18.10
2023-05-07T12:33:58.944Z,17.74
2023-05-07T12:36:26.924Z,19.66
2023-05-07T12:38:55.635Z,20.32
2023-05-07T12:41:26.838Z,18.33
2023-05-07T12:43:57.642Z,18.38
2023-05-07T12:46:24.701Z,19.24
2023-05-07T12:48:51.303Z,19.26
2023-05-07T12:51:17.822Z,19.14
2023-05-07T12:53:44.489Z,18.89
2023-05-07T12:56:11.031Z,18.18
2023-05-07T12:58:37.585Z,18.48
2023-05-07T13:01:08.462Z,18.57
2023-05-07T13:03:36.243Z,19.33
2023-05-07T13:06:11.456Z,19.15
2023-05-07T13:08:41.676Z,20.61
2023-05-07T13:11:10.018Z,20.34
2023-05-07T13:13:38.401Z,20.85
2023-05-07T13:16:06.380Z,20.15
2023-05-07T13:18:33.688Z,20.27
2023-05-07T13:21:01.895Z,21.08
2023-05-07T13:23:28.785Z,21.83
2023-05-07T13:25:56.742Z,20.59
2023-05-07T13:28:24.233Z,21.32
2023-05-07T13:30:52.792Z,20.87
2023-05-07T13:33:19.444Z,19.67
2023-05-07T13:35:45.983Z,20.05
2023-05-07T13:38:12.436Z,19.91
2023-05-07T13:40:38.913Z,19.86
2023-05-07T13:43:07.138Z,19.84
2023-05-07T13:45:34.135Z,20.20
2023-05-07T13:48:01.976Z,20.74
2023-05-07T13:50:30.191Z,20.25
2023-05-07T13:52:56.907Z,19.76
2023-05-07T13:55:24.760Z,19.05
2023-05-07T13:57:59.562Z,19.07
2023-05-07T14:00:27.460Z,19.35
2023-05-07T14:02:54.379Z,19.14
2023-05-07T14:05:21.025Z,18.53
2023-05-07T14:07:48.742Z,19.03
2023-05-07T14:10:15.557Z,19.52
2023-05-07T14:12:42.404Z,19.38
2023-05-07T14:15:09.314Z,19.20
2023-05-07T14:17:35.895Z,19.04
2023-05-07T14:20:02.509Z,18.89
2023-05-07T14:22:29.060Z,19.44
2023-05-07T14:25:05.972Z,19.61
2023-05-07T14:27:33.600Z,19.87
2023-05-07T14:30:00.772Z,19.17
2023-05-07T14:32:28.138Z,19.53
2023-05-07T14:34:54.673Z,18.63
2023-05-07T14:37:22.296Z,18.33
2023-05-07T14:39:50.530Z,19.06
2023-05-07T14:42:17.829Z,19.46
2023-05-07T14:44:45.781Z,19.36
2023-05-07T14:47:12.242Z,19.38
2023-05-07T14:49:39.042Z,18.43
2023-05-07T14:52:07.157Z,18.43
2023-05-07T14:54:38.916Z,18.11
2023-05-07T14:57:06.833Z,18.17
2023-05-07T14:59:33.375Z,18.19
2023-05-07T15:01:59.878Z,18.45
2023-05-07T15:04:26.462Z,17.84
2023-05-07T15:06:54.758Z,18.00
2023-05-07T15:09:21.271Z,18.03
2023-05-07T15:11:47.700Z,18.23
2023-05-07T15:14:14.302Z,18.54
2023-05-07T15:16:40.904Z,18.53
2023-05-07T15:19:07.536Z,18.13
2023-05-07T15:21:35.753Z,18.54
2023-05-07T15:24:02.934Z,17.62
2023-05-07T15:26:30.244Z,18.01
2023-05-07T15:28:59.617Z,17.70
2023-05-07T15:31:26.398Z,17.83
2023-05-07T15:33:53.261Z,18.93
2023-05-07T15:36:21.212Z,18.52
2023-05-07T15:38:47.695Z,18.59
2023-05-07T15:41:14.171Z,18.92
2023-05-07T15:43:49.802Z,18.67
2023-05-07T15:46:21.058Z,18.85
2023-05-07T15:48:47.731Z,19.10
2023-05-07T15:51:14.319Z,18.95
2023-05-07T15:53:41.211Z,19.08
2023-05-07T15:56:07.810Z,18.65
2023-05-07T15:58:35.845Z,18.88
2023-05-07T16:01:02.530Z,18.23
2023-05-07T16:03:32.035Z,18.54
2023-05-07T16:06:00.837Z,18.82
2023-05-07T16:08:27.659Z,18.52
2023-05-07T16:10:54.425Z,18.83
2023-05-07T16:13:21.954Z,19.38
2023-05-07T16:15:48.603Z,18.99
2023-05-07T16:18:17.986Z,18.69
2023-05-07T16:20:44.481Z,19.34
2023-05-07T16:23:13.033Z,18.88
2023-05-07T16:25:39.579Z,18.78
2023-05-07T16:28:06.787Z,18.88
2023-05-07T16:30:33.898Z,18.39
2023-05-07T16:33:02.979Z,18.35
2023-05-07T16:35:29.534Z,18.01
2023-05-07T16:37:56.066Z,17.70
2023-05-07T16:40:22.893Z,18.16
2023-05-07T16:42:49.376Z,17.82
2023-05-07T16:45:16.513Z,17.94
2023-05-07T16:47:43.137Z,18.02
2023-05-07T16:50:10.042Z,17.92
2023-05-07T16:52:36.545Z,18.57
2023-05-07T16:55:03.138Z,18.28
2023-05-07T16:57:30.736Z,17.98
2023-05-07T16:59:57.484Z,18.64
2023-05-07T17:02:24.242Z,17.96
2023-05-07T17:04:50.816Z,18.24
2023-05-07T17:07:17.544Z,18.24
2023-05-07T17:09:44.084Z,18.26
2023-05-07T17:12:10.647Z,18.77
2023-05-07T17:14:37.452Z,18.39
2023-05-07T17:17:04.096Z,18.11
2023-05-07T17:19:30.570Z,18.58
2023-05-07T17:21:57.599Z,18.37
2023-05-07T17:24:24.043Z,18.15
2023-05-07T17:26:51.022Z,18.29
2023-05-07T17:29:19.217Z,18.56
2023-05-07T17:31:46.516Z,18.49
2023-05-07T17:34:15.877Z,18.20
2023-05-07T17:36:44.139Z,18.33
2023-05-07T17:39:10.653Z,18.49
2023-05-07T17:41:37.387Z,17.71
2023-05-07T17:44:04.000Z,17.83
2023-05-07T17:46:30.778Z,18.08
2023-05-07T17:48:57.943Z,17.84
2023-05-07T17:51:25.971Z,17.97
2023-05-07T17:53:52.443Z,17.87
2023-05-07T17:56:18.902Z,17.97
2023-05-07T17:58:58.875Z,17.65
2023-05-07T18:01:26.295Z,17.86
2023-05-07T18:03:52.916Z,17.79
2023-05-07T18:06:20.817Z,17.67
2023-05-07T18:08:47.738Z,17.65
2023-05-07T18:11:14.518Z,17.37
2023-05-07T18:13:41.039Z,17.44
2023-05-07T18:16:07.699Z,17.52
2023-05-07T18:18:35.441Z,17.64
2023-05-07T18:21:03.436Z,17.77
2023-05-07T18:23:30.957Z,17.37
2023-05-07T18:25:58.501Z,17.35
2023-05-07T18:28:28.599Z,17.38
2023-05-07T18:30:55.194Z,17.01
2023-05-07T18:33:22.863Z,16.92
2023-05-07T18:35:49.318Z,17.07
2023-05-07T18:38:16.468Z,17.00
2023-05-07T18:40:44.154Z,17.12
2023-05-07T18:43:11.325Z,16.83
2023-05-07T18:45:40.796Z,16.65
2023-05-07T18:48:07.616Z,16.73
2023-05-07T18:50:34.285Z,16.50
2023-05-07T18:53:00.883Z,16.33
2023-05-07T18:55:27.408Z,16.64
2023-05-07T18:57:53.895Z,16.45
2023-05-07T19:00:20.499Z,16.22
2023-05-07T19:02:46.992Z,16.37
2023-05-07T19:05:13.550Z,15.95
2023-05-07T19:07:40.081Z,16.01
2023-05-07T19:10:07.099Z,15.90
2023-05-07T19:12:33.581Z,16.20
2023-05-07T19:15:00.162Z,15.82
2023-05-07T19:17:26.684Z,16.07
2023-05-07T19:19:53.162Z,15.79
2023-05-07T19:22:19.712Z,15.48
2023-05-07T19:24:46.173Z,15.89
2023-05-07T19:27:12.654Z,15.79
2023-05-07T19:29:40.109Z,15.52
2023-05-07T19:32:06.662Z,15.60
2023-05-07T19:34:33.274Z,15.69
2023-05-07T19:36:59.732Z,15.25
2023-05-07T19:39:27.166Z,15.23
2023-05-07T19:41:53.717Z,15.23
2023-05-07T19:44:20.283Z,15.19
2023-05-07T19:46:47.800Z,15.21
2023-05-07T19:49:14.320Z,15.29
2023-05-07T19:51:40.925Z,14.88
2023-05-07T19:54:07.376Z,15.02
2023-05-07T19:56:33.842Z,14.79
2023-05-07T19:59:00.413Z,15.02
2023-05-07T20:01:28.868Z,14.67
2023-05-07T20:03:55.835Z,14.56
2023-05-07T20:06:23.432Z,14.64
2023-05-07T20:08:50.290Z,14.63
2023-05-07T20:11:16.778Z,14.71
2023-05-07T20:13:43.265Z,14.49
2023-05-07T20:16:09.864Z,14.29
2023-05-07T20:18:36.516Z,14.44
2023-05-07T20:21:04.522Z,14.03
2023-05-07T20:23:31.177Z,13.96
2023-05-07T20:25:58.389Z,14.17
2023-05-07T20:28:25.543Z,14.02
2023-05-07T20:30:52.002Z,13.88
2023-05-07T20:33:18.544Z,14.04
2023-05-07T20:35:45.294Z,14.07
2023-05-07T20:38:11.922Z,13.31
2023-05-07T20:40:38.647Z,13.50
2023-05-07T20:43:06.617Z,13.82
2023-05-07T20:45:33.379Z,13.39
2023-05-07T20:48:00.942Z,13.40
2023-05-07T20:50:27.943Z,13.28
2023-05-07T20:52:54.425Z,13.29
2023-05-07T20:55:20.908Z,13.19
2023-05-07T20:57:47.415Z,13.13
2023-05-07T21:00:15.851Z,12.96
2023-05-07T21:02:42.623Z,12.97
2023-05-07T21:05:09.462Z,12.88
2023-05-07T21:07:35.962Z,13.27
2023-05-07T21:10:03.322Z,13.16
2023-05-07T21:12:29.848Z,13.15
2023-05-07T21:14:56.730Z,13.27
2023-05-07T21:17:23.303Z,13.06
2023-05-07T21:19:50.180Z,13.13
2023-05-07T21:22:16.834Z,13.04
2023-05-07T21:24:44.073Z,12.91
2023-05-07T21:27:10.836Z,12.75
2023-05-07T21:29:38.603Z,12.96
2023-05-07T21:32:05.611Z,12.59
2023-05-07T21:34:32.164Z,12.80
2023-05-07T21:36:58.755Z,12.66
2023-05-07T21:39:25.514Z,12.91
2023-05-07T21:41:51.951Z,12.63
2023-05-07T21:44:18.428Z,12.81
2023-05-07T21:46:45.201Z,12.87
2023-05-07T21:49:11.992Z,12.80
2023-05-07T21:51:38.613Z,12.68
2023-05-07T21:54:05.366Z,12.49
2023-05-07T21:56:31.870Z,12.62
2023-05-07T21:58:58.438Z,12.67
2023-05-07T22:01:25.132Z,12.49
2023-05-07T22:03:52.027Z,12.39
2023-05-07T22:06:22.646Z,12.47
2023-05-07T22:08:49.723Z,12.56
2023-05-07T22:11:16.228Z,12.11
2023-05-07T22:13:43.796Z,12.38
2023-05-07T22:16:10.366Z,12.07
2023-05-07T22:18:36.843Z,12.33
2023-05-07T22:21:03.364Z,12.31
2023-05-07T22:23:29.884Z,12.22
2023-05-07T22:25:56.364Z,12.26
2023-05-07T22:28:22.808Z,12.44
2023-05-07T22:30:50.441Z,12.20
2023-05-07T22:33:16.968Z,12.31
2023-05-07T22:35:43.463Z,12.16
2023-05-07T22:38:09.937Z,12.19
2023-05-07T22:40:36.408Z,12.16
2023-05-07T22:43:02.865Z,12.00
2023-05-07T22:45:29.374Z,11.74
2023-05-07T22:47:55.824Z,11.95
2023-05-07T22:50:22.571Z,12.23
2023-05-07T22:52:49.145Z,12.48
2023-05-07T22:55:15.758Z,11.96
2023-05-07T22:57:42.246Z,11.85
2023-05-07T23:00:10.022Z,12.00
2023-05-07T23:02:36.936Z,11.72
2023-05-07T23:05:03.804Z,11.76
2023-05-07T23:07:30.495Z,11.58
2023-05-07T23:09:57.072Z,11.54
2023-05-07T23:12:23.573Z,11.64
2023-05-07T23:14:50.153Z,11.69
2023-05-07T23:17:17.062Z,11.63
2023-05-07T23:19:43.622Z,11.60
2023-05-07T23:22:10.456Z,11.81
2023-05-07T23:24:37.027Z,11.74
2023-05-07T23:27:07.291Z,11.42
2023-05-07T23:29:34.285Z,11.92
2023-05-07T23:32:01.870Z,11.52
2023-05-07T23:34:28.343Z,11.78
2023-05-07T23:36:54.913Z,11.70
2023-05-07T23:39:21.385Z,11.97
2023-05-07T23:41:47.988Z,11.79
2023-05-07T23:44:16.651Z,11.80
2023-05-07T23:46:44.473Z,11.28
2023-05-07T23:49:11.179Z,11.57
2023-05-07T23:51:37.961Z,11.74
2023-05-07T23:54:04.776Z,11.34
2023-05-07T23:56:31.579Z,11.37
2023-05-07T23:58:58.107Z,11.60
